Manzaneda, Spain
Current Conditions -  °F | °C
As of 7:00 PM on Thursday 23 Oct 2014 (Local Time) from LEVX Reporting Station
Clear Clear  
Wind Chill: 70°   Ceiling: Unl
Heat Index: 70°   Visibility: 6mi
Dew Point: 57°   Wind: 1mph
Humidity: 64%   Direction: NA
Pressure: 30.18"   Gusts: NA
Location:  42.31°N, 7.24°W
Report Text: LEVX 231700Z VRB01KT CAVOK 21/14 Q1022 NOSIG
Loading
Personal Weather Stations






























Interactive Weather Map
Tropical Storm Tracking
New forecast layout! Learn more

10-Day Weather Forecast

Advertisements
Track Severe Weather on mobile